Latest Weather Observations for Cairns

IDQ60801

Issued at 3:35 pm EST Friday 1 August 2014 (issued every 30 minutes, with the page automatically refreshed every 10 minutes)

About weather observations | Map of weather stations | Latest weather observations for QLD | Other Formats
Station Details ID: 031011 Name: CAIRNS AERO Lat: -16.87 Lon: 145.75 Height: 2.22 m
Data from the previous 72 hours. | See also: Recent months at Cairns
Date/Time
EST
Temp
°C
App
Temp
°C
Dew
Point
Rel
Hum
%
Delta-T
°C
Wind Press
QNH
hPa
Press
MSL
hPa
Rain
since 9 am
mm
Dir
 
Spd
km/h
Gust
km/h
Spd
kts
Gust
kts
01/03:00pm 25.7 25.8 18.3 63 4.7 NE 15 19 8 10 1015.0 1014.9 0.0
01/02:30pm 25.6 25.0 17.6 61 5.0 NE 17 20 9 11 1015.2 - 0.0
01/02:00pm 24.5 24.1 18.8 70 3.6 NE 19 24 10 13 1015.6 - 0.0
01/01:30pm 26.4 25.2 17.5 58 5.6 NE 20 28 11 15 1016.0 - 0.0
01/01:00pm 26.3 25.4 19.0 64 4.7 NE 22 28 12 15 1016.3 - 0.0
01/12:30pm 27.2 27.4 15.8 49 7.0 SE 9 15 5 8 1016.7 - 0.0
01/12:00pm 26.7 26.3 15.3 49 6.9 ESE 11 19 6 10 1017.1 1017.0 0.0
01/11:30am 26.7 27.0 15.9 51 6.6 S 9 15 5 8 1017.5 - 0.0
01/11:00am 25.7 25.8 16.4 56 5.7 SSE 11 19 6 10 1017.8 - 0.0
01/10:00am 24.5 24.5 17.2 63 4.5 SE 13 15 7 8 1018.2 - 0.0
01/09:30am 24.0 23.2 17.0 65 4.3 SSE 17 20 9 11 1018.2 - 0.0
01/09:00am 23.2 21.9 16.8 67 3.9 SE 19 22 10 12 1018.0 1017.9 0.0
01/08:30am 21.2 22.3 18.0 82 2.0 W 9 11 5 6 1017.9 - 0.0
01/08:00am 19.5 21.0 17.5 88 1.2 W 6 7 3 4 1017.7 - 0.0
01/07:30am 18.5 20.2 17.2 92 0.8 S 4 7 2 4 1017.4 - 0.0
01/07:00am 16.9 17.7 16.4 97 0.3 W 7 9 4 5 1016.9 - 0.0
01/06:30am 17.0 19.2 16.5 97 0.3 CALM 0 7 0 4 1016.7 - 0.0
01/06:00am 16.8 19.0 16.5 98 0.2 WNW 0 0 0 0 1016.6 1016.5 0.0
01/05:30am 16.5 18.6 16.2 98 0.2 WNW 0 0 0 0 1016.4 - 0.0
01/05:00am 17.0 19.2 16.5 97 0.3 CALM 0 0 0 0 1016.2 - 0.0
01/04:30am 16.6 18.7 16.3 98 0.2 CALM 0 0 0 0 1016.2 - 0.0
01/04:00am 17.1 19.3 16.6 97 0.3 CALM 0 0 0 0 1016.2 - 0.0
01/03:30am 17.4 18.5 16.6 95 0.5 W 6 7 3 4 1016.2 - 0.0
01/03:00am 19.1 18.7 17.1 88 1.2 SSE 15 19 8 10 1016.2 1016.1 0.0
01/02:30am 18.6 19.3 17.1 91 0.9 SSE 9 13 5 7 1016.6 - 0.0
01/02:00am 18.1 20.5 16.9 93 0.7 CALM 0 0 0 0 1016.8 - 0.0
01/01:30am 18.4 20.1 17.2 93 0.7 WSW 4 7 2 4 1017.0 - 0.0
01/01:00am 18.7 21.1 16.9 89 1.1 CALM 0 0 0 0 1017.3 - 0.0
01/12:30am 20.2 21.0 17.2 83 1.8 SSE 9 13 5 7 1017.3 - 0.0
01/12:00am 20.6 21.0 17.3 81 2.0 S 11 15 6 8 1017.6 1017.5 0.0
 
Date/Time
EST
Temp
°C
App
Temp
°C
Dew
Point
Rel
Hum
%
Delta-T
°C
Wind Press
QNH
hPa
Press
MSL
hPa
Rain
since 9 am
mm
Dir
 
Spd
km/h
Gust
km/h
Spd
kts
Gust
kts
31/11:30pm 20.9 21.3 17.3 80 2.2 S 11 17 6 9 1017.7 - 0.0
31/11:00pm 21.3 21.0 17.4 78 2.4 S 15 20 8 11 1017.8 - 0.0
31/10:30pm 21.1 20.9 17.7 81 2.1 S 15 22 8 12 1017.8 - 0.0
31/10:00pm 21.5 21.7 17.6 78 2.4 S 13 20 7 11 1017.7 - 0.0
31/09:30pm 21.6 22.0 17.2 76 2.7 S 11 17 6 9 1017.7 - 0.0
31/09:00pm 21.6 21.6 17.2 76 2.7 S 13 19 7 10 1017.5 1017.4 0.0
31/08:30pm 21.8 21.5 17.4 76 2.7 S 15 22 8 12 1017.4 - 0.0
31/08:00pm 22.1 22.3 17.7 76 2.7 S 13 19 7 10 1017.1 - 0.0
31/07:30pm 22.4 22.2 17.7 75 2.9 S 15 19 8 10 1016.8 - 0.0
31/07:00pm 22.5 22.5 18.0 75 2.8 SSE 15 20 8 11 1016.4 - 0.0
31/06:30pm 22.8 22.2 17.5 72 3.3 SE 17 20 9 11 1016.2 - 0.0
31/06:00pm 22.9 23.2 17.9 73 3.1 SSE 13 17 7 9 1016.2 1016.1 0.0
31/05:30pm 23.4 24.0 17.8 71 3.5 ESE 11 17 6 9 1016.1 - 0.0
31/05:00pm 23.9 23.7 17.5 67 4.0 E 15 19 8 10 1015.8 - 0.0
31/04:30pm 23.9 22.6 16.7 64 4.4 E 19 26 10 14 1015.6 - 0.0
31/04:00pm 24.9 23.8 17.2 62 4.8 ENE 19 26 10 14 1015.4 - 0.0
31/03:30pm 25.2 23.8 17.1 60 5.0 ENE 20 28 11 15 1015.1 - 0.0
31/03:00pm 25.7 25.8 17.5 60 5.1 E 13 19 7 10 1015.2 1015.1 0.0
31/02:30pm 26.0 24.8 17.0 57 5.6 E 19 26 10 14 1015.5 - 0.0
31/02:00pm 25.1 24.5 16.6 59 5.2 ESE 15 20 8 11 1015.9 - 0.0
31/01:30pm 25.4 23.8 16.1 56 5.7 E 19 26 10 14 1016.3 - 0.0
31/01:00pm 25.6 24.9 15.5 53 6.1 ENE 13 17 7 9 1016.6 - 0.0
31/12:30pm 25.5 25.4 16.9 59 5.3 ESE 13 19 7 10 1016.9 - 0.0
31/12:00pm 25.0 24.7 17.3 62 4.8 SE 15 19 8 10 1017.4 1017.3 0.0
31/11:30am 25.8 25.8 17.1 58 5.4 S 13 19 7 10 1017.8 - 0.0
31/11:00am 24.9 23.8 17.3 62 4.7 SSE 19 24 10 13 1018.2 - 0.0
31/10:30am 25.1 24.3 17.2 61 4.9 SSE 17 20 9 11 1018.4 - 0.0
31/10:00am 24.6 24.2 17.2 63 4.6 SSE 15 26 8 14 1018.6 - 0.0
31/09:30am 23.7 22.7 16.7 65 4.3 S 17 22 9 12 1018.7 - 0.0
31/09:00am 24.1 23.7 17.1 65 4.3 S 15 24 8 13 1018.7 1018.6 0.0
31/08:30am 23.1 22.8 17.3 70 3.6 SSE 15 20 8 11 1018.5 - 0.0
31/08:00am 22.2 21.9 17.3 74 3.0 SE 15 19 8 10 1018.4 - 0.0
31/07:30am 21.0 21.4 17.2 79 2.3 SSE 11 17 6 9 1018.1 - 0.0
31/07:00am 19.3 18.5 17.2 88 1.3 SE 17 20 9 11 1018.0 - 0.0
31/06:30am 19.4 18.9 16.9 85 1.5 SE 15 19 8 10 1017.8 - 0.0
31/06:00am 19.5 20.3 17.2 86 1.4 SE 9 17 5 9 1017.6 1017.5 0.0
31/05:30am 19.5 19.2 17.4 88 1.3 SE 15 19 8 10 1017.4 - 0.0
31/05:00am 19.5 19.3 16.8 84 1.6 SE 13 17 7 9 1017.4 - 0.0
31/04:30am 20.1 19.8 16.4 79 2.2 SE 13 17 7 9 1017.3 - 0.0
31/04:00am 21.1 20.4 16.5 75 2.8 S 15 24 8 13 1017.3 - 0.0
31/03:30am 20.8 19.2 16.5 76 2.6 S 20 30 11 16 1017.2 - 0.0
31/03:00am 20.4 18.7 17.1 81 2.0 S 22 32 12 17 1017.5 1017.4 0.0
31/02:30am 20.2 18.6 17.4 84 1.7 S 22 30 12 16 1017.7 - 0.0
31/02:00am 20.9 19.8 17.3 80 2.2 S 19 26 10 14 1017.7 - 0.0
31/01:30am 20.0 19.6 17.2 84 1.7 SSE 15 20 8 11 1017.9 - 0.0
31/01:00am 21.5 21.5 17.1 76 2.7 S 13 17 7 9 1018.1 - 0.0
31/12:30am 20.9 20.2 16.4 75 2.7 S 15 20 8 11 1018.4 - 0.0
31/12:00am 21.5 20.8 16.5 73 3.0 S 15 26 8 14 1018.4 1018.3 0.0
 
Date/Time
EST
Temp
°C
App
Temp
°C
Dew
Point
Rel
Hum
%
Delta-T
°C
Wind Press
QNH
hPa
Press
MSL
hPa
Rain
since 9 am
mm
Dir
 
Spd
km/h
Gust
km/h
Spd
kts
Gust
kts
30/11:30pm 20.4 20.1 17.3 82 1.9 SE 15 17 8 9 1018.6 - 0.0
30/11:00pm 20.8 19.5 16.8 78 2.4 S 19 26 10 14 1018.7 - 0.0
30/10:30pm 21.2 20.5 16.4 74 2.9 S 15 22 8 12 1018.8 - 0.0
30/10:00pm 21.6 21.4 16.7 73 3.0 S 13 28 7 15 1018.9 - 0.0
30/09:30pm 21.5 19.9 16.5 73 3.0 S 20 28 11 15 1019.0 - 0.0
30/09:00pm 20.5 19.7 17.0 80 2.1 S 17 32 9 17 1019.0 1018.9 0.0
30/08:30pm 20.7 19.2 16.4 76 2.6 S 19 28 10 15 1018.8 - 0.0
30/08:00pm 20.7 18.9 16.9 79 2.3 S 22 32 12 17 1018.5 - 0.0
30/07:30pm 21.3 20.2 17.4 78 2.4 S 19 28 10 15 1018.1 - 0.0
30/07:00pm 22.0 21.5 16.0 68 3.6 S 13 19 7 10 1017.8 - 0.0
30/06:30pm 22.2 22.1 16.1 68 3.7 S 11 15 6 8 1017.4 - 0.0
30/06:00pm 22.2 22.1 16.1 68 3.7 S 11 19 6 10 1017.3 1017.2 0.0
30/05:30pm 23.7 22.7 16.7 65 4.3 SSE 17 24 9 13 1017.2 - 0.0
30/05:00pm 24.1 23.0 16.4 62 4.7 SE 17 26 9 14 1017.1 - 0.0
30/04:30pm 24.6 24.4 16.6 61 4.9 SE 13 22 7 12 1016.9 - 0.0
30/04:00pm 24.7 23.4 15.8 57 5.4 SE 17 22 9 12 1016.8 - 0.0
30/03:30pm 26.0 24.2 15.4 52 6.4 SE 19 30 10 16 1016.8 - 0.0
30/03:00pm 25.5 22.3 15.2 53 6.2 SE 26 33 14 18 1016.9 1016.8 0.0
30/02:30pm 26.0 23.1 16.2 54 6.0 ESE 26 32 14 17 1017.0 - 0.0
30/02:00pm 25.9 23.6 15.7 53 6.2 SE 22 32 12 17 1017.3 - 0.0
30/01:30pm 25.8 24.3 16.3 55 5.8 SE 19 28 10 15 1017.6 - 0.0
30/01:00pm 25.1 22.6 16.1 57 5.5 SE 24 33 13 18 1018.1 - 0.0
30/12:30pm 25.4 22.6 15.3 53 6.1 SSE 24 33 13 18 1018.4 - 0.0
30/12:00pm 24.1 23.3 17.1 65 4.3 S 17 24 9 13 1019.0 1018.9 0.0
30/11:30am 24.2 22.5 17.2 65 4.3 SE 22 30 12 16 1019.3 - 0.0
30/11:00am 23.0 22.0 17.9 73 3.2 SE 20 30 11 16 1019.6 - 0.0
30/10:30am 24.0 23.5 17.9 68 3.8 SSE 17 28 9 15 1019.9 - 0.0
30/10:00am 23.9 22.8 17.8 68 3.8 SSE 20 30 11 16 1020.0 - 0.0
30/09:30am 23.4 23.0 18.1 72 3.3 S 17 26 9 14 1020.0 - 0.0
30/09:00am 22.2 21.6 18.5 79 2.3 SSE 19 26 10 14 1020.0 1019.9 0.4
30/08:30am 20.1 19.2 17.8 86 1.4 E 19 26 10 14 1019.9 - -
30/08:00am 19.2 19.2 17.2 88 1.2 ESE 13 19 7 10 1019.8 - -
30/07:30am 19.8 20.0 17.7 88 1.3 SSE 13 19 7 10 1019.6 - -
30/07:00am 19.9 19.4 17.9 88 1.2 S 17 26 9 14 1019.4 - -
30/06:30am 19.2 17.7 17.6 90 1.0 S 22 33 12 18 1019.3 - -
30/06:24am 19.5 17.5 17.4 88 1.3 S 24 33 13 18 1019.1 - -
30/06:00am 19.8 18.6 16.1 79 2.2 SSE 17 24 9 13 1018.6 1018.5 -
30/05:30am 18.9 17.6 15.9 83 1.8 SSE 17 20 9 11 1018.4 - -
30/05:00am 18.3 16.5 15.6 84 1.6 ESE 19 22 10 12 1018.4 - -
30/04:30am 19.0 17.6 15.6 80 2.0 SE 17 20 9 11 1018.2 - -
30/04:00am 20.4 19.9 16.0 76 2.6 S 13 20 7 11 1018.1 - -
30/03:30am 20.8 19.5 15.9 73 2.9 S 17 26 9 14 1018.2 - -
30/03:00am 20.9 20.4 15.9 73 3.0 SSE 13 20 7 11 1018.3 1018.2 -
30/02:30am 20.0 18.7 15.8 77 2.5 SE 17 20 9 11 1018.6 - -
30/02:00am 20.5 19.7 16.2 76 2.6 S 15 22 8 12 1018.8 - -
30/01:30am 20.8 19.9 15.8 73 3.0 S 15 22 8 12 1019.2 - -
30/01:00am 19.4 19.7 16.0 81 2.0 SSE 9 13 5 7 1019.6 - -
30/12:30am 19.4 18.8 15.7 79 2.2 ESE 13 17 7 9 1019.8 - -
30/12:00am 19.2 18.2 15.5 79 2.2 SE 15 19 8 10 1020.0 1019.9 -
 
Date/Time
EST
Temp
°C
App
Temp
°C
Dew
Point
Rel
Hum
%
Delta-T
°C
Wind Press
QNH
hPa
Press
MSL
hPa
Rain
since 9 am
mm
Dir
 
Spd
km/h
Gust
km/h
Spd
kts
Gust
kts
29/11:30pm 20.1 19.0 15.3 74 2.8 SSE 15 20 8 11 1019.9 - -
29/11:00pm 19.5 18.7 15.2 76 2.5 SE 13 19 7 10 1020.0 - -
29/10:30pm 18.2 16.9 15.8 86 1.4 ESE 17 20 9 11 1020.1 - -
29/10:00pm 18.6 17.1 15.4 81 1.9 SE 17 20 9 11 1020.1 - -
29/09:30pm 20.8 19.4 14.4 67 3.7 S 15 22 8 12 1020.0 - -
29/09:00pm 20.9 18.8 14.6 67 3.7 S 19 30 10 16 1019.8 1019.7 -
29/08:30pm 20.9 19.3 14.9 68 3.5 S 17 26 9 14 1019.6 - -
29/08:00pm 21.1 19.7 14.6 66 3.8 S 15 22 8 12 1019.5 - -
29/07:30pm 20.5 19.9 14.5 68 3.5 S 11 15 6 8 1019.4 - -
29/07:00pm 20.3 20.5 14.8 70 3.2 S 7 11 4 6 1019.0 - -
29/06:30pm 20.6 20.7 14.4 67 3.6 SSE 7 11 4 6 1018.7 - -
29/06:00pm 21.9 21.0 13.6 59 4.8 S 11 15 6 8 1018.6 1018.5 -
29/05:30pm 23.2 20.8 13.9 56 5.4 SE 19 24 10 13 1018.3 - -
29/05:00pm 24.1 20.3 12.4 48 6.7 SE 24 30 13 16 1018.0 - -
29/04:30pm 24.9 22.3 13.2 48 6.8 ESE 19 26 10 14 1017.8 - -
29/04:00pm 24.9 22.0 12.8 47 7.0 ESE 20 28 11 15 1017.7 - -

Other Formats:

Comma delimited format used in spreadsheet applications
http://www.bom.gov.au/fwo/IDQ60801/IDQ60801.94287.axf

JavaScript Object Notation format (JSON) in row-major order
http://www.bom.gov.au/fwo/IDQ60801/IDQ60801.94287.json